Time;durP1;ratioP1;P1;durP2;ratioP2;P2;SDS_P1;SDS_P2;PMS_P1;PMS_P2;Temp;Humidity;BMP_temperature;BMP_pressure;BME280_temperature;BME280_humidity;BME280_pressure;Samples;Min_cycle;Max_cycle;Signal;HPM_P1;HPM_P2
2022/05/11 00:00:33;;;;;;;2.15;1.15;;;;;;;;;;4999389;28;20292;-18
2022/05/11 00:03:00;;;;;;;4.82;1.65;;;;;;;;;;4999054;28;20796;-18
2022/05/11 00:05:27;;;;;;;3.50;1.25;;;;;;;;;;5000637;28;20291;-19
2022/05/11 00:07:55;;;;;;;1.85;1.30;;;;;;;;;;5002478;28;20232;-19
2022/05/11 00:10:23;;;;;;;1.67;1.20;;;;;;;;;;5001317;28;20240;-18
2022/05/11 00:12:51;;;;;;;3.50;1.30;;;;;;;;;;5002153;28;20236;-19
2022/05/11 00:15:19;;;;;;;4.15;1.38;;;;;;;;;;5001931;28;20235;-19
2022/05/11 00:17:46;;;;;;;2.75;1.20;;;;;;;;;;5002070;28;20954;-19
2022/05/11 00:20:13;;;;;;;1.65;1.20;;;;;;;;;;5000700;28;20248;-19
2022/05/11 00:22:41;;;;;;;1.80;0.98;;;;;;;;;;5002625;28;20236;-18
2022/05/11 00:25:09;;;;;;;6.65;1.40;;;;;;;;;;4998828;28;20590;-18
2022/05/11 00:27:38;;;;;;;4.75;1.65;;;;;;;;;;4999790;28;20688;-19
2022/05/11 00:30:06;;;;;;;1.80;1.10;;;;;;;;;;5002888;28;20235;-19
2022/05/11 00:32:33;;;;;;;6.47;1.20;;;;;;;;;;4995826;28;20242;-18
2022/05/11 00:35:01;;;;;;;1.85;1.05;;;;;;;;;;5000094;28;20217;-19
2022/05/11 00:37:28;;;;;;;3.25;1.15;;;;;;;;;;4998995;28;21084;-19
2022/05/11 00:39:55;;;;;;;1.95;1.10;;;;;;;;;;5002130;28;20345;-19
2022/05/11 00:42:23;;;;;;;2.45;1.40;;;;;;;;;;5000632;28;20240;-19
2022/05/11 00:44:53;;;;;;;2.10;1.10;;;;;;;;;;5003027;28;20722;-19
2022/05/11 00:47:21;;;;;;;1.85;1.10;;;;;;;;;;4999648;28;20729;-19
2022/05/11 00:49:49;;;;;;;2.22;1.10;;;;;;;;;;5001128;28;20236;-19
2022/05/11 00:52:16;;;;;;;2.00;1.25;;;;;;;;;;5001303;28;20239;-19
2022/05/11 00:54:45;;;;;;;2.25;1.17;;;;;;;;;;5000099;28;20965;-19
2022/05/11 00:57:14;;;;;;;2.58;1.13;;;;;;;;;;5000892;28;20235;-19
2022/05/11 00:59:42;;;;;;;3.63;1.55;;;;;;;;;;4999839;28;20232;-19
2022/05/11 01:02:11;;;;;;;3.08;1.40;;;;;;;;;;5002318;28;20248;-19
2022/05/11 01:04:39;;;;;;;2.08;1.00;;;;;;;;;;5002510;28;20298;-19
2022/05/11 01:07:07;;;;;;;3.17;1.20;;;;;;;;;;4999230;28;20351;-19
2022/05/11 01:09:34;;;;;;;2.17;1.15;;;;;;;;;;4995154;28;20235;-19
2022/05/11 01:12:01;;;;;;;3.72;1.20;;;;;;;;;;5002531;28;20721;-19
2022/05/11 01:14:30;;;;;;;1.88;1.08;;;;;;;;;;4999260;28;20228;-19
2022/05/11 01:16:58;;;;;;;1.60;1.20;;;;;;;;;;5002316;28;20238;-19
2022/05/11 01:19:27;;;;;;;1.63;1.02;;;;;;;;;;4996879;28;22244;-18
2022/05/11 01:21:55;;;;;;;2.05;0.90;;;;;;;;;;4999974;28;20741;-19
2022/05/11 01:24:30;;;;;;;1.98;1.17;;;;;;;;;;4997804;28;20235;-19
2022/05/11 01:26:58;;;;;;;1.95;1.00;;;;;;;;;;5000128;28;20227;-19
2022/05/11 01:29:25;;;;;;;2.38;1.10;;;;;;;;;;4998740;28;20239;-19
2022/05/11 01:31:52;;;;;;;3.15;1.23;;;;;;;;;;5000765;28;21005;-18
2022/05/11 01:34:21;;;;;;;1.88;1.23;;;;;;;;;;5000185;28;20319;-19
2022/05/11 01:36:48;;;;;;;1.92;1.17;;;;;;;;;;5000123;28;20267;-18
2022/05/11 01:39:15;;;;;;;2.75;1.23;;;;;;;;;;5000641;28;20242;-19
2022/05/11 01:41:44;;;;;;;3.78;1.30;;;;;;;;;;4999666;28;20250;-19
2022/05/11 01:44:12;;;;;;;7.57;1.10;;;;;;;;;;5001140;28;20282;-18
2022/05/11 01:46:40;;;;;;;3.40;1.02;;;;;;;;;;5001395;28;20222;-19
2022/05/11 01:49:07;;;;;;;1.92;1.20;;;;;;;;;;4998755;28;20742;-19
2022/05/11 01:51:35;;;;;;;4.63;1.23;;;;;;;;;;4995450;28;20259;-19
2022/05/11 01:54:02;;;;;;;4.03;1.35;;;;;;;;;;4994451;28;20789;-19
2022/05/11 01:56:29;;;;;;;2.05;1.13;;;;;;;;;;5001715;28;20235;-19
2022/05/11 01:58:58;;;;;;;1.83;1.00;;;;;;;;;;4999267;28;20242;-19
2022/05/11 02:01:26;;;;;;;1.80;1.20;;;;;;;;;;4997653;28;21067;-18
2022/05/11 02:03:53;;;;;;;2.05;1.20;;;;;;;;;;5000566;28;20236;-19
2022/05/11 02:09:06;;;;;;;3.67;1.40;;;;;;;;;;4997163;28;20246;-19
2022/05/11 02:11:33;;;;;;;1.80;1.27;;;;;;;;;;5002133;28;20239;-18
2022/05/11 02:14:02;;;;;;;1.60;1.17;;;;;;;;;;5003748;28;20234;-18
2022/05/11 02:16:29;;;;;;;1.77;1.38;;;;;;;;;;5001540;28;20325;-18
2022/05/11 02:18:57;;;;;;;2.38;1.27;;;;;;;;;;5002332;28;20216;-19
2022/05/11 02:21:24;;;;;;;2.47;1.30;;;;;;;;;;5012431;22;20280;-17
2022/05/11 02:23:52;;;;;;;4.78;1.13;;;;;;;;;;4989973;28;20235;-17
2022/05/11 02:26:20;;;;;;;1.80;1.20;;;;;;;;;;4983958;28;20240;-17
2022/05/11 02:28:48;;;;;;;1.77;1.17;;;;;;;;;;4985970;28;20775;-17
2022/05/11 02:31:16;;;;;;;3.25;1.48;;;;;;;;;;4986720;28;20227;-17
2022/05/11 02:33:44;;;;;;;4.18;1.35;;;;;;;;;;4982852;28;20287;-17
2022/05/11 02:36:12;;;;;;;1.42;1.10;;;;;;;;;;4985108;28;20243;-17
2022/05/11 02:38:40;;;;;;;2.25;1.10;;;;;;;;;;4979653;28;20239;-17
2022/05/11 02:41:08;;;;;;;2.92;1.20;;;;;;;;;;4983004;28;20239;-17
2022/05/11 02:43:35;;;;;;;2.47;1.33;;;;;;;;;;4981690;28;20704;-17
2022/05/11 02:46:02;;;;;;;4.30;1.40;;;;;;;;;;4984991;28;20240;-17
2022/05/11 02:48:33;;;;;;;2.70;1.40;;;;;;;;;;4981802;28;20221;-16
2022/05/11 02:51:01;;;;;;;3.05;1.20;;;;;;;;;;4984576;28;20323;-17
2022/05/11 02:53:28;;;;;;;2.72;1.40;;;;;;;;;;4980362;28;20228;-17
2022/05/11 02:55:56;;;;;;;1.20;1.10;;;;;;;;;;4984659;28;20236;-17
2022/05/11 02:58:27;;;;;;;1.92;1.50;;;;;;;;;;4985513;28;20236;-17
2022/05/11 03:00:54;;;;;;;2.35;1.27;;;;;;;;;;4983401;28;20240;-17
2022/05/11 03:03:22;;;;;;;2.90;1.48;;;;;;;;;;4982735;28;20243;-17
2022/05/11 03:05:52;;;;;;;2.83;1.52;;;;;;;;;;4982788;28;20232;-17
2022/05/11 03:08:20;;;;;;;3.50;1.65;;;;;;;;;;4982972;28;20224;-17
2022/05/11 03:10:48;;;;;;;2.85;1.42;;;;;;;;;;4982861;28;20237;-17
2022/05/11 03:13:16;;;;;;;2.00;1.50;;;;;;;;;;4983251;28;20224;-16
2022/05/11 03:15:43;;;;;;;2.22;1.50;;;;;;;;;;4981361;28;20255;-17
2022/05/11 03:18:10;;;;;;;2.15;1.60;;;;;;;;;;4982716;28;20225;-16
2022/05/11 03:20:38;;;;;;;2.33;1.40;;;;;;;;;;4983422;28;20606;-17
2022/05/11 03:23:06;;;;;;;2.70;1.70;;;;;;;;;;4984396;28;20241;-17
2022/05/11 03:25:34;;;;;;;3.03;1.65;;;;;;;;;;4980786;28;20229;-17
2022/05/11 03:28:01;;;;;;;2.75;1.65;;;;;;;;;;4985440;28;20699;-17
2022/05/11 03:30:28;;;;;;;3.25;1.50;;;;;;;;;;4984929;28;20349;-17
2022/05/11 03:35:42;;;;;;;5.82;1.45;;;;;;;;;;4981327;28;20290;-17
2022/05/11 03:38:11;;;;;;;3.25;1.55;;;;;;;;;;4979724;28;20237;-17
2022/05/11 03:40:39;;;;;;;2.00;1.45;;;;;;;;;;4987206;28;20699;-17
2022/05/11 03:43:06;;;;;;;2.30;1.73;;;;;;;;;;4984249;28;20246;-17
2022/05/11 03:45:34;;;;;;;2.80;1.80;;;;;;;;;;4977155;28;20235;-17
2022/05/11 03:48:01;;;;;;;3.30;1.55;;;;;;;;;;4984037;28;20280;-17
2022/05/11 03:50:28;;;;;;;2.80;1.75;;;;;;;;;;4981264;28;20655;-17
2022/05/11 03:52:56;;;;;;;2.88;1.60;;;;;;;;;;4986435;28;20229;-17
2022/05/11 03:55:25;;;;;;;2.42;1.52;;;;;;;;;;4981382;28;20315;-17
2022/05/11 03:57:52;;;;;;;1.63;1.40;;;;;;;;;;4983168;28;20241;-17
2022/05/11 04:00:21;;;;;;;1.95;1.58;;;;;;;;;;4983269;28;20232;-18
2022/05/11 04:02:48;;;;;;;2.13;1.73;;;;;;;;;;4981331;28;20248;-17
2022/05/11 04:05:16;;;;;;;2.17;1.50;;;;;;;;;;4981239;28;20903;-17
2022/05/11 04:07:43;;;;;;;2.92;1.60;;;;;;;;;;4982664;28;20234;-16
2022/05/11 04:10:12;;;;;;;2.78;1.80;;;;;;;;;;4980809;28;20237;-17
2022/05/11 04:12:41;;;;;;;5.45;2.03;;;;;;;;;;4983485;28;20232;-17
2022/05/11 04:15:09;;;;;;;2.85;1.60;;;;;;;;;;4983560;28;20232;-17
2022/05/11 04:17:38;;;;;;;2.67;1.65;;;;;;;;;;4983202;28;20235;-17
2022/05/11 04:20:06;;;;;;;2.55;1.60;;;;;;;;;;4980027;28;20228;-17
2022/05/11 04:22:33;;;;;;;3.22;1.77;;;;;;;;;;4983638;28;20248;-17
2022/05/11 04:25:01;;;;;;;1.95;1.50;;;;;;;;;;4982756;28;20233;-17
2022/05/11 04:27:29;;;;;;;2.25;1.77;;;;;;;;;;4983345;28;20284;-17
2022/05/11 04:29:58;;;;;;;3.20;1.90;;;;;;;;;;4980671;28;20235;-17
2022/05/11 04:32:25;;;;;;;2.08;1.60;;;;;;;;;;4979366;28;20232;-17
2022/05/11 04:34:52;;;;;;;4.28;2.00;;;;;;;;;;4982115;28;20236;-17
2022/05/11 04:37:20;;;;;;;2.72;1.73;;;;;;;;;;4984939;28;20238;-17
2022/05/11 04:39:47;;;;;;;2.97;1.40;;;;;;;;;;4983328;28;20244;-17
2022/05/11 04:42:14;;;;;;;6.20;1.80;;;;;;;;;;4980641;28;20255;-17
2022/05/11 04:44:42;;;;;;;2.95;1.50;;;;;;;;;;4980784;28;20232;-17
2022/05/11 04:47:11;;;;;;;1.90;1.40;;;;;;;;;;4985636;28;20234;-17
2022/05/11 04:49:39;;;;;;;3.25;1.80;;;;;;;;;;4980007;28;20714;-17
2022/05/11 04:52:08;;;;;;;1.58;1.35;;;;;;;;;;4982997;28;20242;-17
2022/05/11 04:54:36;;;;;;;2.22;1.60;;;;;;;;;;4979440;28;20229;-17
2022/05/11 04:57:04;;;;;;;6.15;1.88;;;;;;;;;;4980032;28;20232;-17
2022/05/11 04:59:32;;;;;;;2.28;1.73;;;;;;;;;;4982979;28;20240;-17
2022/05/11 05:01:59;;;;;;;3.13;1.85;;;;;;;;;;4982416;28;20240;-17
2022/05/11 05:04:28;;;;;;;3.15;1.92;;;;;;;;;;4981905;28;20271;-17
2022/05/11 05:06:55;;;;;;;2.50;1.60;;;;;;;;;;4981703;28;20233;-17
2022/05/11 05:09:23;;;;;;;2.72;1.70;;;;;;;;;;4984147;28;20729;-17
2022/05/11 05:11:51;;;;;;;3.53;1.98;;;;;;;;;;4981065;28;20238;-17
2022/05/11 05:14:18;;;;;;;2.72;1.77;;;;;;;;;;4981163;28;20262;-17
2022/05/11 05:16:45;;;;;;;2.67;2.00;;;;;;;;;;4984023;28;20229;-17
2022/05/11 05:19:14;;;;;;;2.88;1.85;;;;;;;;;;4982069;28;20240;-17
2022/05/11 05:21:42;;;;;;;3.05;2.20;;;;;;;;;;4981906;28;20335;-17
2022/05/11 05:24:10;;;;;;;4.35;1.98;;;;;;;;;;4982540;28;20247;-17
2022/05/11 05:26:37;;;;;;;2.10;1.90;;;;;;;;;;4982018;28;20395;-17
2022/05/11 05:31:50;;;;;;;4.65;2.00;;;;;;;;;;4982168;28;20235;-17
2022/05/11 05:34:17;;;;;;;2.35;1.65;;;;;;;;;;4980150;28;20250;-17
2022/05/11 05:36:46;;;;;;;2.53;1.90;;;;;;;;;;4980245;28;20246;-17
2022/05/11 05:39:13;;;;;;;4.15;1.85;;;;;;;;;;4978394;28;20228;-17
2022/05/11 05:41:41;;;;;;;4.47;2.10;;;;;;;;;;4980880;28;20240;-17
2022/05/11 05:44:09;;;;;;;8.10;2.47;;;;;;;;;;4979415;28;20220;-17
2022/05/11 05:46:36;;;;;;;4.03;2.03;;;;;;;;;;4978645;28;20219;-17
2022/05/11 05:49:04;;;;;;;4.97;2.20;;;;;;;;;;4978906;28;20237;-17
2022/05/11 05:51:31;;;;;;;5.63;2.10;;;;;;;;;;4982489;28;20239;-17
2022/05/11 05:54:00;;;;;;;3.58;2.13;;;;;;;;;;4985165;28;20640;-17
2022/05/11 05:56:27;;;;;;;4.18;2.10;;;;;;;;;;4979592;28;20243;-17
2022/05/11 05:58:58;;;;;;;4.95;2.08;;;;;;;;;;4978987;28;20982;-17
2022/05/11 06:01:26;;;;;;;4.88;2.10;;;;;;;;;;4979207;28;20244;-17
2022/05/11 06:03:53;;;;;;;4.80;1.83;;;;;;;;;;4982776;28;20744;-17
2022/05/11 06:06:21;;;;;;;5.30;2.30;;;;;;;;;;4979902;28;20232;-17
2022/05/11 06:08:48;;;;;;;4.53;1.98;;;;;;;;;;4980115;28;21071;-17
2022/05/11 06:11:17;;;;;;;3.50;2.10;;;;;;;;;;4980842;28;20232;-17
2022/05/11 06:13:45;;;;;;;2.47;1.90;;;;;;;;;;4980793;28;20224;-17
2022/05/11 06:16:14;;;;;;;4.40;2.10;;;;;;;;;;4978576;28;20283;-17
2022/05/11 06:18:42;;;;;;;3.47;1.85;;;;;;;;;;4984382;28;20280;-17
2022/05/11 06:21:10;;;;;;;3.40;1.90;;;;;;;;;;4982735;28;20340;-17
2022/05/11 06:23:37;;;;;;;2.92;2.03;;;;;;;;;;4984177;28;20324;-17
2022/05/11 06:26:05;;;;;;;2.67;1.85;;;;;;;;;;4979384;28;20229;-17
2022/05/11 06:28:35;;;;;;;4.03;1.90;;;;;;;;;;4986795;28;20757;-17
2022/05/11 06:31:16;;;;;;;4.63;2.05;;;;;;;;;;4984337;28;20286;-17
2022/05/11 06:33:46;;;;;;;2.72;1.60;;;;;;;;;;4980650;28;20233;-16
2022/05/11 06:36:14;;;;;;;7.13;2.05;;;;;;;;;;4980628;28;20242;-17
2022/05/11 06:38:41;;;;;;;5.90;1.95;;;;;;;;;;4982424;28;20228;-17
2022/05/11 06:41:09;;;;;;;3.00;1.75;;;;;;;;;;4978519;28;20228;-17
2022/05/11 06:43:38;;;;;;;2.72;1.85;;;;;;;;;;4981455;28;20734;-17
2022/05/11 06:46:05;;;;;;;3.42;2.20;;;;;;;;;;4979104;28;20295;-17
2022/05/11 06:48:32;;;;;;;3.22;2.00;;;;;;;;;;4985412;28;20237;-17
2022/05/11 06:51:00;;;;;;;6.65;1.88;;;;;;;;;;4979891;28;20744;-17
2022/05/11 06:53:27;;;;;;;6.90;2.20;;;;;;;;;;4979601;28;20229;-17
2022/05/11 07:01:40;;;;;;;2.40;1.70;;;;;;;;;;4946859;28;20232;-17
2022/05/11 07:04:07;;;;;;;3.28;1.42;;;;;;;;;;4951249;28;20253;-17
2022/05/11 07:06:35;;;;;;;3.72;1.75;;;;;;;;;;4965125;28;20224;-17
2022/05/11 07:09:02;;;;;;;4.18;1.83;;;;;;;;;;4981811;28;20223;-17
2022/05/11 07:14:16;;;;;;;5.22;1.70;;;;;;;;;;4990622;28;20981;-17
2022/05/11 07:16:43;;;;;;;4.90;1.73;;;;;;;;;;4986511;28;20239;-17
2022/05/11 07:19:13;;;;;;;3.70;2.05;;;;;;;;;;4981426;28;20670;-17
2022/05/11 07:21:40;;;;;;;2.45;1.77;;;;;;;;;;4983170;28;20252;-17
2022/05/11 07:24:07;;;;;;;5.15;1.63;;;;;;;;;;4983697;28;20233;-17
2022/05/11 07:26:35;;;;;;;2.90;2.05;;;;;;;;;;4980553;28;20986;-17
2022/05/11 07:29:02;;;;;;;5.68;1.75;;;;;;;;;;4980747;28;20239;-17
2022/05/11 07:31:31;;;;;;;3.45;1.92;;;;;;;;;;4983606;28;20232;-17
2022/05/11 07:33:58;;;;;;;11.93;2.00;;;;;;;;;;4984724;28;20284;-17
2022/05/11 07:36:26;;;;;;;5.72;1.90;;;;;;;;;;4982677;28;20237;-17
2022/05/11 07:38:53;;;;;;;3.80;1.83;;;;;;;;;;4984065;28;20552;-17
2022/05/11 07:41:20;;;;;;;4.68;1.90;;;;;;;;;;4981992;28;20228;-17
2022/05/11 07:43:48;;;;;;;3.72;1.40;;;;;;;;;;4984887;28;20239;-17
2022/05/11 07:46:15;;;;;;;5.47;1.75;;;;;;;;;;4986255;28;20252;-17
2022/05/11 07:48:44;;;;;;;4.03;1.77;;;;;;;;;;4981678;28;20233;-17
2022/05/11 07:51:11;;;;;;;3.25;1.52;;;;;;;;;;4986369;28;20240;-17
2022/05/11 07:53:38;;;;;;;5.10;1.60;;;;;;;;;;4984647;28;20228;-17
2022/05/11 08:01:51;;;;;;;3.38;1.38;;;;;;;;;;4973631;28;20221;-17
2022/05/11 08:04:20;;;;;;;3.22;1.30;;;;;;;;;;4984514;28;20251;-17
2022/05/11 08:06:47;;;;;;;4.97;1.15;;;;;;;;;;4989325;28;20232;-17
2022/05/11 08:09:14;;;;;;;4.63;1.23;;;;;;;;;;4985485;28;20231;-17
2022/05/11 08:11:42;;;;;;;3.35;1.13;;;;;;;;;;4980901;28;20233;-17
2022/05/11 08:14:09;;;;;;;4.90;1.42;;;;;;;;;;4983554;28;20247;-17
2022/05/11 08:16:36;;;;;;;3.28;1.30;;;;;;;;;;4983299;28;20244;-17
2022/05/11 08:19:04;;;;;;;2.40;1.00;;;;;;;;;;4979999;28;20220;-17
2022/05/11 08:21:33;;;;;;;4.35;1.10;;;;;;;;;;4981905;28;20989;-17
2022/05/11 08:24:01;;;;;;;1.88;0.82;;;;;;;;;;4983280;28;20248;-17
2022/05/11 08:26:28;;;;;;;8.70;1.50;;;;;;;;;;4982502;28;20243;-17
2022/05/11 08:28:55;;;;;;;3.00;1.00;;;;;;;;;;4983520;28;20225;-17
2022/05/11 08:34:08;;;;;;;3.72;1.20;;;;;;;;;;4979857;28;20228;-17
2022/05/11 08:36:38;;;;;;;5.28;1.08;;;;;;;;;;4980372;28;20224;-17
2022/05/11 08:39:06;;;;;;;3.80;1.13;;;;;;;;;;4982334;28;20229;-17
2022/05/11 08:41:34;;;;;;;2.60;0.95;;;;;;;;;;4979930;28;20252;-17
2022/05/11 08:44:02;;;;;;;6.25;1.40;;;;;;;;;;4982983;28;20236;-17
2022/05/11 08:46:32;;;;;;;5.13;1.30;;;;;;;;;;4982408;28;20240;-17
2022/05/11 08:49:00;;;;;;;8.70;1.25;;;;;;;;;;4984009;28;20264;-17
2022/05/11 08:51:29;;;;;;;3.05;1.40;;;;;;;;;;4984388;28;20770;-17
2022/05/11 08:54:03;;;;;;;2.92;1.23;;;;;;;;;;4980163;28;22401;-17
2022/05/11 08:56:30;;;;;;;4.90;1.30;;;;;;;;;;4982742;28;20238;-17
2022/05/11 08:58:57;;;;;;;4.82;1.38;;;;;;;;;;4979348;28;20236;-17
2022/05/11 09:01:28;;;;;;;3.70;1.50;;;;;;;;;;4984212;28;20228;-17
2022/05/11 09:03:56;;;;;;;6.25;1.58;;;;;;;;;;4982878;28;20268;-17
2022/05/11 09:06:26;;;;;;;8.40;1.27;;;;;;;;;;4981371;28;21056;-17
2022/05/11 09:08:54;;;;;;;4.90;1.38;;;;;;;;;;4982553;28;20243;-17
2022/05/11 09:11:26;;;;;;;5.20;1.40;;;;;;;;;;4984031;28;20235;-17
2022/05/11 09:13:53;;;;;;;3.17;1.13;;;;;;;;;;4983256;28;20228;-17
2022/05/11 09:16:21;;;;;;;7.38;1.30;;;;;;;;;;4979747;28;20823;-17
2022/05/11 09:18:49;;;;;;;2.88;1.15;;;;;;;;;;4980858;28;20268;-17
2022/05/11 09:21:34;;;;;;;6.05;1.20;;;;;;;;;;4980065;28;20721;-17
2022/05/11 09:24:08;;;;;;;6.47;1.40;;;;;;;;;;4981724;28;20259;-17
2022/05/11 09:26:37;;;;;;;3.85;1.27;;;;;;;;;;4982762;28;20284;-17
2022/05/11 09:29:12;;;;;;;7.53;1.33;;;;;;;;;;4979122;28;20985;-17
2022/05/11 09:31:40;;;;;;;7.55;1.50;;;;;;;;;;4983019;28;20318;-17
2022/05/11 09:34:08;;;;;;;4.35;1.40;;;;;;;;;;4982897;28;20691;-17
2022/05/11 09:36:56;;;;;;;4.97;1.40;;;;;;;;;;4981544;28;20241;-17
2022/05/11 09:39:24;;;;;;;4.60;1.10;;;;;;;;;;4980401;28;20224;-17
2022/05/11 09:41:53;;;;;;;4.97;1.58;;;;;;;;;;4981094;28;21030;-17
2022/05/11 09:44:21;;;;;;;5.55;1.40;;;;;;;;;;4984122;28;20739;-17
2022/05/11 09:46:48;;;;;;;3.35;1.40;;;;;;;;;;4978760;28;20233;-17
2022/05/11 09:49:25;;;;;;;4.95;1.65;;;;;;;;;;4980321;28;20233;-17
2022/05/11 09:51:54;;;;;;;4.82;1.45;;;;;;;;;;4982097;28;20246;-17
2022/05/11 09:54:23;;;;;;;2.20;1.00;;;;;;;;;;4982933;28;20276;-17
2022/05/11 09:56:56;;;;;;;2.97;1.35;;;;;;;;;;4980194;28;20232;-17
2022/05/11 09:59:24;;;;;;;6.28;1.80;;;;;;;;;;4981088;28;20343;-17
2022/05/11 10:01:52;;;;;;;5.60;1.45;;;;;;;;;;4978293;28;20284;-17
2022/05/11 10:04:21;;;;;;;6.53;2.08;;;;;;;;;;4980831;28;20318;-17
2022/05/11 10:07:03;;;;;;;5.20;1.52;;;;;;;;;;4981494;28;20337;-17
2022/05/11 10:09:32;;;;;;;10.27;1.65;;;;;;;;;;4978676;28;20980;-17
2022/05/11 10:12:07;;;;;;;7.85;1.90;;;;;;;;;;4978446;28;20247;-17
2022/05/11 10:23:15;;;;;;;5.15;1.67;;;;;;;;;;4978138;28;20242;-17
2022/05/11 10:25:43;;;;;;;5.45;2.00;;;;;;;;;;4979080;28;20237;-17
2022/05/11 10:28:16;;;;;;;4.47;1.70;;;;;;;;;;4984423;28;20232;-17
2022/05/11 10:30:45;;;;;;;10.48;1.90;;;;;;;;;;4983927;28;20360;-17
2022/05/11 10:33:16;;;;;;;7.38;2.10;;;;;;;;;;4982591;28;20736;-17
2022/05/11 10:35:47;;;;;;;5.60;2.25;;;;;;;;;;4984285;28;20232;-17
2022/05/11 10:38:28;;;;;;;4.65;1.48;;;;;;;;;;4982412;28;20311;-17
2022/05/11 10:40:58;;;;;;;5.28;2.10;;;;;;;;;;4985006;28;20236;-17
2022/05/11 10:43:35;;;;;;;7.85;1.80;;;;;;;;;;4982393;28;21090;-17
2022/05/11 10:46:23;;;;;;;3.28;1.52;;;;;;;;;;4982086;28;20674;-17
2022/05/11 10:48:54;;;;;;;4.25;1.98;;;;;;;;;;4983691;28;21070;-17
2022/05/11 10:51:24;;;;;;;3.58;1.75;;;;;;;;;;4984786;28;20240;-17
2022/05/11 10:53:54;;;;;;;2.78;1.50;;;;;;;;;;4983058;28;20224;-17
2022/05/11 10:56:24;;;;;;;7.30;2.00;;;;;;;;;;4983340;28;20233;-17
2022/05/11 10:58:59;;;;;;;6.10;1.80;;;;;;;;;;4982901;28;20235;-17
2022/05/11 11:01:28;;;;;;;4.50;1.55;;;;;;;;;;4984495;28;21091;-17
2022/05/11 11:04:14;;;;;;;4.68;1.90;;;;;;;;;;4983975;28;20332;-17
2022/05/11 11:09:31;;;;;;;5.93;2.08;;;;;;;;;;4981791;28;20272;-17
2022/05/11 11:12:00;;;;;;;3.83;1.77;;;;;;;;;;4986613;28;20232;-17
2022/05/11 11:14:31;;;;;;;7.65;1.60;;;;;;;;;;4981863;28;20700;-17
2022/05/11 11:17:04;;;;;;;3.17;1.80;;;;;;;;;;4980715;28;20236;-17
2022/05/11 11:19:31;;;;;;;4.60;2.00;;;;;;;;;;4983742;28;20232;-17
2022/05/11 11:22:00;;;;;;;9.43;2.30;;;;;;;;;;4980996;28;20259;-17
2022/05/11 11:24:27;;;;;;;3.25;1.75;;;;;;;;;;4984524;28;21052;-17
2022/05/11 11:26:56;;;;;;;5.15;1.83;;;;;;;;;;4985158;28;20692;-17
2022/05/11 11:29:29;;;;;;;5.45;1.85;;;;;;;;;;4983079;28;20243;-17
2022/05/11 11:32:06;;;;;;;6.40;2.40;;;;;;;;;;4978988;28;20239;-16
2022/05/11 11:34:34;;;;;;;5.85;1.77;;;;;;;;;;4984208;28;20233;-17
2022/05/11 11:37:17;;;;;;;5.28;1.58;;;;;;;;;;4981149;28;20779;-16
2022/05/11 11:39:49;;;;;;;7.72;2.20;;;;;;;;;;4981577;28;20229;-17
2022/05/11 11:42:27;;;;;;;3.65;1.90;;;;;;;;;;4982545;28;20232;-17
2022/05/11 11:44:56;;;;;;;4.22;1.67;;;;;;;;;;4984135;28;20259;-17
2022/05/11 11:47:34;;;;;;;6.72;2.10;;;;;;;;;;4981067;28;20683;-17
2022/05/11 11:50:02;;;;;;;5.35;1.90;;;;;;;;;;4980597;28;20224;-17
2022/05/11 11:52:33;;;;;;;5.05;1.88;;;;;;;;;;4980970;28;20232;-17
2022/05/11 11:55:01;;;;;;;5.07;2.00;;;;;;;;;;4984019;28;20836;-17
2022/05/11 11:57:28;;;;;;;10.93;2.20;;;;;;;;;;4979652;28;20236;-17
2022/05/11 11:59:58;;;;;;;5.90;1.88;;;;;;;;;;4981017;28;20263;-17
2022/05/11 12:02:27;;;;;;;6.85;1.60;;;;;;;;;;4980064;28;20236;-17
2022/05/11 12:05:02;;;;;;;5.10;1.80;;;;;;;;;;4982388;28;20248;-17
2022/05/11 12:16:00;;;;;;;5.20;1.80;;;;;;;;;;4981189;28;20222;-17
2022/05/11 12:18:28;;;;;;;5.05;1.98;;;;;;;;;;4984227;28;20239;-17
2022/05/11 12:20:56;;;;;;;6.47;2.03;;;;;;;;;;4981384;28;20246;-17
2022/05/11 12:23:26;;;;;;;5.90;1.67;;;;;;;;;;4981794;28;20248;-17
2022/05/11 12:25:54;;;;;;;3.42;1.90;;;;;;;;;;4980927;28;20244;-17
2022/05/11 12:28:22;;;;;;;8.57;1.92;;;;;;;;;;4981368;28;20946;-17
2022/05/11 12:30:50;;;;;;;8.55;2.25;;;;;;;;;;4983001;28;20239;-17
2022/05/11 12:33:22;;;;;;;4.93;1.90;;;;;;;;;;4982276;28;20225;-17
2022/05/11 12:35:50;;;;;;;5.82;2.15;;;;;;;;;;4981593;28;20259;-17
2022/05/11 12:38:27;;;;;;;6.63;1.88;;;;;;;;;;4981778;28;20612;-17
2022/05/11 12:40:55;;;;;;;7.13;2.17;;;;;;;;;;4983751;28;20232;-17
2022/05/11 12:43:24;;;;;;;10.13;2.45;;;;;;;;;;4982238;28;20700;-17
2022/05/11 12:45:51;;;;;;;5.93;2.35;;;;;;;;;;4981358;28;20232;-17
2022/05/11 12:48:20;;;;;;;4.43;1.63;;;;;;;;;;4981511;28;20217;-17
2022/05/11 12:50:50;;;;;;;5.53;1.90;;;;;;;;;;4982309;28;20266;-17
2022/05/11 12:53:36;;;;;;;6.05;1.60;;;;;;;;;;4981040;28;20668;-17
2022/05/11 12:56:08;;;;;;;7.55;1.80;;;;;;;;;;4979236;28;20208;-17
2022/05/11 12:58:35;;;;;;;7.70;2.65;;;;;;;;;;4975888;28;20236;-17
2022/05/11 13:01:03;;;;;;;6.32;1.88;;;;;;;;;;4979604;28;20616;-17
2022/05/11 13:03:31;;;;;;;6.07;1.80;;;;;;;;;;4983184;28;20225;-17
2022/05/11 13:06:00;;;;;;;8.40;1.80;;;;;;;;;;4982724;28;20244;-17
2022/05/11 13:08:28;;;;;;;4.00;1.75;;;;;;;;;;4980053;28;21195;-17
2022/05/11 13:10:56;;;;;;;5.93;1.50;;;;;;;;;;4982263;28;20719;-17
2022/05/11 13:13:26;;;;;;;8.27;1.90;;;;;;;;;;4983607;28;20246;-17
2022/05/11 13:15:54;;;;;;;4.35;1.70;;;;;;;;;;4981457;28;20240;-17
2022/05/11 13:18:25;;;;;;;6.72;1.90;;;;;;;;;;4978731;28;20245;-17
2022/05/11 13:20:53;;;;;;;5.40;2.05;;;;;;;;;;4980509;28;20234;-17
2022/05/11 13:23:25;;;;;;;3.65;1.98;;;;;;;;;;4980336;28;20320;-17
2022/05/11 13:25:53;;;;;;;9.85;2.03;;;;;;;;;;4982260;28;20295;-17
2022/05/11 13:28:24;;;;;;;6.03;2.22;;;;;;;;;;4980968;28;20236;-17
2022/05/11 13:30:53;;;;;;;8.25;2.00;;;;;;;;;;4982733;28;20251;-17
2022/05/11 13:33:44;;;;;;;4.85;1.98;;;;;;;;;;4980749;28;20272;-17
2022/05/11 13:36:16;;;;;;;5.15;2.30;;;;;;;;;;4984001;28;20263;-17
2022/05/11 13:38:55;;;;;;;5.88;1.90;;;;;;;;;;4979957;28;20233;-17
2022/05/11 13:41:24;;;;;;;4.93;2.15;;;;;;;;;;4980455;28;20235;-17
2022/05/11 13:43:53;;;;;;;6.22;2.35;;;;;;;;;;4980987;28;20229;-17
2022/05/11 13:46:38;;;;;;;6.50;2.25;;;;;;;;;;4985008;28;20247;-17
2022/05/11 13:49:14;;;;;;;10.43;2.63;;;;;;;;;;4979202;28;20216;-17
2022/05/11 13:51:42;;;;;;;4.55;1.60;;;;;;;;;;4979972;28;20735;-17
2022/05/11 13:54:21;;;;;;;5.30;2.10;;;;;;;;;;4982368;28;20239;-17
2022/05/11 13:56:56;;;;;;;5.72;1.70;;;;;;;;;;4980173;28;20228;-17
2022/05/11 13:59:24;;;;;;;3.47;1.85;;;;;;;;;;4982904;28;20313;-17
2022/05/11 14:01:51;;;;;;;6.63;2.50;;;;;;;;;;4984010;28;20228;-17
2022/05/11 14:04:20;;;;;;;5.78;2.00;;;;;;;;;;4977693;28;21065;-17
2022/05/11 14:06:53;;;;;;;4.60;1.90;;;;;;;;;;4983612;28;20255;-17
2022/05/11 14:09:21;;;;;;;8.65;2.10;;;;;;;;;;4990145;28;20238;-17
2022/05/11 14:11:49;;;;;;;5.80;2.17;;;;;;;;;;4987328;28;21564;-17
2022/05/11 14:14:16;;;;;;;5.82;2.00;;;;;;;;;;4991443;28;20239;-17
2022/05/11 14:16:43;;;;;;;10.13;2.67;;;;;;;;;;4987984;28;20235;-17
2022/05/11 14:19:11;;;;;;;9.60;2.40;;;;;;;;;;4989804;28;20232;-17
2022/05/11 14:21:39;;;;;;;6.72;2.28;;;;;;;;;;4981259;28;20255;-17
2022/05/11 14:24:06;;;;;;;7.70;1.80;;;;;;;;;;4992709;28;20228;-17
2022/05/11 14:26:35;;;;;;;4.10;2.05;;;;;;;;;;4987480;28;21058;-18
2022/05/11 14:29:08;;;;;;;4.68;1.90;;;;;;;;;;4982493;28;20287;-17
2022/05/11 14:31:35;;;;;;;3.88;1.75;;;;;;;;;;4988445;28;20227;-18
2022/05/11 14:34:03;;;;;;;7.85;2.13;;;;;;;;;;4992791;28;20231;-18
2022/05/11 14:36:30;;;;;;;7.38;2.67;;;;;;;;;;4990913;28;20225;-17
2022/05/11 14:38:58;;;;;;;3.85;1.80;;;;;;;;;;4990309;28;20315;-18
2022/05/11 14:41:25;;;;;;;6.88;2.28;;;;;;;;;;4985940;28;20232;-18
2022/05/11 14:43:57;;;;;;;10.48;2.35;;;;;;;;;;4984037;28;20229;-17
2022/05/11 14:46:26;;;;;;;4.00;2.00;;;;;;;;;;4984520;28;20235;-17
2022/05/11 14:48:54;;;;;;;4.35;2.33;;;;;;;;;;4982354;28;20238;-17
2022/05/11 14:51:21;;;;;;;9.23;2.20;;;;;;;;;;4982859;28;20240;-18
2022/05/11 14:53:48;;;;;;;3.78;2.00;;;;;;;;;;4984500;28;20336;-18
2022/05/11 14:56:16;;;;;;;7.78;2.35;;;;;;;;;;4985652;28;20236;-17
2022/05/11 15:04:20;;;;;;;8.60;2.92;;;;;;;;;;4984583;28;20239;-17
2022/05/11 15:06:48;;;;;;;5.20;1.85;;;;;;;;;;4982629;28;20243;-17
2022/05/11 15:09:15;;;;;;;7.65;2.15;;;;;;;;;;4983455;28;20243;-17
2022/05/11 15:14:27;;;;;;;7.00;1.98;;;;;;;;;;4988701;28;20241;-18
2022/05/11 15:16:56;;;;;;;4.80;2.05;;;;;;;;;;4983734;28;20240;-17
2022/05/11 15:19:24;;;;;;;5.05;2.10;;;;;;;;;;4982597;28;20234;-17
2022/05/11 15:21:51;;;;;;;4.30;1.88;;;;;;;;;;4985396;28;20248;-17
2022/05/11 15:24:19;;;;;;;8.55;1.98;;;;;;;;;;4990437;28;20228;-17
2022/05/11 15:26:46;;;;;;;8.15;2.08;;;;;;;;;;4986642;28;20792;-18
2022/05/11 15:29:14;;;;;;;4.63;2.03;;;;;;;;;;4987207;28;20276;-18
2022/05/11 15:31:42;;;;;;;4.95;2.10;;;;;;;;;;4984677;28;20224;-17
2022/05/11 15:34:11;;;;;;;5.35;1.75;;;;;;;;;;4981373;28;20339;-17
2022/05/11 15:36:39;;;;;;;9.88;1.90;;;;;;;;;;4983922;28;20229;-17
2022/05/11 15:39:08;;;;;;;9.50;1.92;;;;;;;;;;4984251;28;20220;-18
2022/05/11 15:41:35;;;;;;;4.43;1.85;;;;;;;;;;4981228;28;20685;-18
2022/05/11 15:44:04;;;;;;;5.63;2.08;;;;;;;;;;4980662;28;20236;-18
2022/05/11 15:46:32;;;;;;;8.27;2.25;;;;;;;;;;4986731;28;20232;-18